Time;durP1;ratioP1;P1;durP2;ratioP2;P2;SDS_P1;SDS_P2;PMS_P1;PMS_P2;Temp;Humidity;BMP_temperature;BMP_pressure;BME280_temperature;BME280_humidity;BME280_pressure;Samples;Min_cycle;Max_cycle;Signal;HPM_P1;HPM_P2
2021/07/23 00:00:53;;;;;;;8.93;4.90;;;;;;;;;;143726;630;46012;-90
2021/07/23 00:03:21;;;;;;;8.00;5.10;;;;;;;;;;143722;595;47020;-88
2021/07/23 00:05:48;;;;;;;10.50;4.95;;;;;;;;;;143725;576;46013;-87
2021/07/23 00:08:15;;;;;;;12.55;5.35;;;;;;;;;;143724;620;46021;-88
2021/07/23 00:10:42;;;;;;;8.35;5.85;;;;;;;;;;143727;594;46012;-87
2021/07/23 00:13:08;;;;;;;7.50;5.15;;;;;;;;;;143723;578;47022;-87
2021/07/23 00:15:39;;;;;;;9.93;6.22;;;;;;;;;;143726;574;46012;-89
2021/07/23 00:18:07;;;;;;;9.20;5.60;;;;;;;;;;143724;593;46020;-85
2021/07/23 00:20:35;;;;;;;7.07;6.12;;;;;;;;;;143731;591;46012;-89
2021/07/23 00:23:02;;;;;;;9.45;6.40;;;;;;;;;;143723;569;46021;-88
2021/07/23 00:25:29;;;;;;;9.38;5.95;;;;;;;;;;143724;589;46020;-88
2021/07/23 00:27:56;;;;;;;6.85;5.97;;;;;;;;;;143724;610;47020;-90
2021/07/23 00:30:23;;;;;;;8.88;6.95;;;;;;;;;;143731;594;46012;-87
2021/07/23 00:32:50;;;;;;;12.05;5.57;;;;;;;;;;143731;618;46022;-88
2021/07/23 00:35:17;;;;;;;9.35;6.85;;;;;;;;;;143726;595;46012;-88
2021/07/23 00:37:43;;;;;;;8.45;5.93;;;;;;;;;;143726;570;46015;-89
2021/07/23 00:40:11;;;;;;;13.18;6.57;;;;;;;;;;143728;570;46018;-88
2021/07/23 00:42:44;;;;;;;11.25;7.37;;;;;;;;;;143731;564;46022;-87
2021/07/23 00:45:11;;;;;;;11.20;6.72;;;;;;;;;;143725;594;46013;-88
2021/07/23 00:47:44;;;;;;;14.43;6.53;;;;;;;;;;143722;673;46020;-89
2021/07/23 00:50:11;;;;;;;14.87;7.30;;;;;;;;;;143726;598;47018;-89
2021/07/23 00:52:39;;;;;;;9.73;6.97;;;;;;;;;;143724;633;47022;-88
2021/07/23 00:55:08;;;;;;;9.55;6.90;;;;;;;;;;143725;565;46020;-87
2021/07/23 00:57:37;;;;;;;7.90;6.75;;;;;;;;;;143726;595;46019;-87
2021/07/23 01:00:05;;;;;;;10.32;6.70;;;;;;;;;;143728;613;46018;-87
2021/07/23 01:02:31;;;;;;;10.73;6.47;;;;;;;;;;143726;592;46016;-89
2021/07/23 01:05:00;;;;;;;8.57;6.57;;;;;;;;;;143723;577;46020;-88
2021/07/23 01:07:29;;;;;;;7.57;6.20;;;;;;;;;;143722;580;46021;-88
2021/07/23 01:09:58;;;;;;;9.15;6.45;;;;;;;;;;143726;579;46020;-90
2021/07/23 01:12:25;;;;;;;8.85;5.93;;;;;;;;;;143722;604;47022;-87
2021/07/23 01:14:56;;;;;;;8.80;6.55;;;;;;;;;;143727;567;46013;-88
2021/07/23 01:17:26;;;;;;;9.20;6.32;;;;;;;;;;143724;591;47020;-87
2021/07/23 01:20:19;;;;;;;9.93;5.90;;;;;;;;;;143725;595;47020;-89
2021/07/23 01:22:46;;;;;;;;;;;;;;;;;;143726;956;47020;-87
2021/07/23 01:25:15;;;;;;;10.13;5.93;;;;;;;;;;143731;630;46020;-88
2021/07/23 01:27:46;;;;;;;6.62;5.85;;;;;;;;;;143724;590;46020;-88
2021/07/23 01:30:17;;;;;;;10.70;6.22;;;;;;;;;;143729;587;46012;-87
2021/07/23 01:33:05;;;;;;;6.12;5.53;;;;;;;;;;143726;614;46022;-87
2021/07/23 01:35:52;;;;;;;8.77;6.00;;;;;;;;;;143728;571;46020;-87
2021/07/23 01:38:35;;;;;;;7.47;5.85;;;;;;;;;;143723;583;46020;-88
2021/07/23 01:41:04;;;;;;;8.82;6.35;;;;;;;;;;143727;596;46012;-87
2021/07/23 01:43:32;;;;;;;11.80;6.80;;;;;;;;;;143727;573;46022;-90
2021/07/23 01:46:01;;;;;;;17.98;7.12;;;;;;;;;;143726;569;46012;-89
2021/07/23 01:48:27;;;;;;;8.65;6.10;;;;;;;;;;143725;571;46020;-89
2021/07/23 01:50:57;;;;;;;11.70;6.80;;;;;;;;;;143727;569;46013;-89
2021/07/23 01:53:24;;;;;;;13.85;6.53;;;;;;;;;;143722;581;47020;-89
2021/07/23 01:55:52;;;;;;;9.50;5.82;;;;;;;;;;143725;575;47020;-89
2021/07/23 01:58:18;;;;;;;6.20;5.37;;;;;;;;;;143726;588;46020;-88
2021/07/23 02:00:45;;;;;;;12.68;6.00;;;;;;;;;;143729;641;46012;-87
2021/07/23 02:03:12;;;;;;;9.95;6.20;;;;;;;;;;143720;621;47020;-88
2021/07/23 02:05:40;;;;;;;6.82;5.70;;;;;;;;;;143727;599;46013;-88
2021/07/23 02:08:09;;;;;;;8.63;5.20;;;;;;;;;;143728;564;46020;-89
2021/07/23 02:10:36;;;;;;;8.38;5.47;;;;;;;;;;143725;582;47020;-89
2021/07/23 02:13:06;;;;;;;8.93;5.60;;;;;;;;;;143726;629;47022;-88
2021/07/23 02:15:42;;;;;;;9.98;6.12;;;;;;;;;;143723;565;47020;-88
2021/07/23 02:18:10;;;;;;;10.73;6.65;;;;;;;;;;143724;639;47020;-88
2021/07/23 02:20:59;;;;;;;9.63;6.15;;;;;;;;;;143727;566;46020;-88
2021/07/23 02:23:26;;;;;;;9.38;4.97;;;;;;;;;;143728;569;46023;-88
2021/07/23 02:25:53;;;;;;;9.00;5.80;;;;;;;;;;143730;591;46010;-88
2021/07/23 02:28:22;;;;;;;7.57;5.80;;;;;;;;;;143724;584;46021;-88
2021/07/23 02:30:48;;;;;;;24.00;6.37;;;;;;;;;;143728;564;46036;-89
2021/07/23 02:33:15;;;;;;;7.35;5.57;;;;;;;;;;143725;585;46040;-90
2021/07/23 02:35:42;;;;;;;8.13;5.15;;;;;;;;;;143728;564;46013;-89
2021/07/23 02:38:09;;;;;;;14.15;6.18;;;;;;;;;;143726;581;46020;-89
2021/07/23 02:40:36;;;;;;;6.97;5.47;;;;;;;;;;143728;600;46047;-87
2021/07/23 02:43:02;;;;;;;12.32;5.20;;;;;;;;;;143724;643;47020;-89
2021/07/23 02:45:31;;;;;;;6.40;4.95;;;;;;;;;;143727;561;46012;-89
2021/07/23 02:47:58;;;;;;;7.20;5.47;;;;;;;;;;143725;577;47012;-90
2021/07/23 02:50:25;;;;;;;6.75;5.55;;;;;;;;;;143731;619;46020;-89
2021/07/23 02:52:51;;;;;;;9.60;5.80;;;;;;;;;;143722;583;47023;-89
2021/07/23 02:55:18;;;;;;;8.77;5.37;;;;;;;;;;143727;636;46918;-89
2021/07/23 02:57:45;;;;;;;6.57;5.50;;;;;;;;;;143724;572;47020;-89
2021/07/23 03:00:13;;;;;;;7.40;6.60;;;;;;;;;;143725;592;47020;-88
2021/07/23 03:02:39;;;;;;;6.87;5.90;;;;;;;;;;143729;607;46020;-89
2021/07/23 03:05:06;;;;;;;8.35;5.93;;;;;;;;;;143727;578;46013;-88
2021/07/23 03:07:34;;;;;;;11.32;6.37;;;;;;;;;;143725;570;46021;-88
2021/07/23 03:10:00;;;;;;;7.90;5.95;;;;;;;;;;143728;621;46012;-89
2021/07/23 03:12:28;;;;;;;7.93;5.30;;;;;;;;;;143723;592;47021;-88
2021/07/23 03:14:55;;;;;;;7.22;4.78;;;;;;;;;;143727;594;46012;-87
2021/07/23 03:17:23;;;;;;;9.43;6.55;;;;;;;;;;143728;575;46020;-89
2021/07/23 03:19:49;;;;;;;11.48;5.68;;;;;;;;;;143725;604;48012;-90
2021/07/23 03:22:16;;;;;;;11.73;5.80;;;;;;;;;;143724;591;47023;-88
2021/07/23 03:24:43;;;;;;;7.22;6.03;;;;;;;;;;143728;603;46012;-90
2021/07/23 03:27:10;;;;;;;16.35;5.60;;;;;;;;;;143726;616;47020;-89
2021/07/23 03:29:37;;;;;;;18.20;7.90;;;;;;;;;;143730;589;46010;-87
2021/07/23 03:32:05;;;;;;;14.98;5.10;;;;;;;;;;143724;575;47020;-87
2021/07/23 03:34:32;;;;;;;20.15;6.25;;;;;;;;;;143719;571;47012;-88
2021/07/23 03:36:59;;;;;;;13.13;6.18;;;;;;;;;;143726;588;46021;-87
2021/07/23 03:39:27;;;;;;;20.55;7.07;;;;;;;;;;143730;587;46020;-87
2021/07/23 03:41:54;;;;;;;22.58;6.47;;;;;;;;;;143720;578;46043;-88
2021/07/23 03:44:20;;;;;;;16.45;5.70;;;;;;;;;;143726;592;46012;-87
2021/07/23 03:46:48;;;;;;;11.38;5.80;;;;;;;;;;143725;645;47020;-88
2021/07/23 03:49:15;;;;;;;10.00;5.40;;;;;;;;;;143728;613;46013;-89
2021/07/23 03:51:42;;;;;;;19.75;9.15;;;;;;;;;;143724;635;47023;-89
2021/07/23 03:54:08;;;;;;;22.40;6.78;;;;;;;;;;143726;582;46012;-88
2021/07/23 03:56:35;;;;;;;9.57;5.80;;;;;;;;;;143724;586;47020;-90
2021/07/23 03:59:03;;;;;;;11.12;5.90;;;;;;;;;;143728;577;46018;-86
2021/07/23 04:01:32;;;;;;;20.88;6.57;;;;;;;;;;143725;582;47020;-88
2021/07/23 04:03:59;;;;;;;12.50;6.43;;;;;;;;;;143729;593;46020;-88
2021/07/23 04:06:28;;;;;;;10.90;6.85;;;;;;;;;;143722;574;46021;-87
2021/07/23 04:08:55;;;;;;;15.40;6.72;;;;;;;;;;143728;625;46018;-90
2021/07/23 04:11:36;;;;;;;12.85;7.10;;;;;;;;;;143721;572;47021;-89
2021/07/23 04:14:03;;;;;;;15.68;6.85;;;;;;;;;;143727;569;46012;-88
2021/07/23 04:16:31;;;;;;;13.38;6.85;;;;;;;;;;143727;572;47020;-88
2021/07/23 04:18:58;;;;;;;13.10;7.25;;;;;;;;;;143728;605;46012;-88
2021/07/23 04:21:25;;;;;;;9.82;6.72;;;;;;;;;;143725;659;47023;-88
2021/07/23 04:23:53;;;;;;;12.52;8.15;;;;;;;;;;143724;659;46012;-88
2021/07/23 04:26:19;;;;;;;16.67;7.45;;;;;;;;;;143724;582;47020;-88
2021/07/23 04:28:46;;;;;;;20.37;7.62;;;;;;;;;;143728;594;46012;-86
2021/07/23 04:31:13;;;;;;;10.73;7.37;;;;;;;;;;143720;597;47020;-88
2021/07/23 04:33:40;;;;;;;25.60;9.50;;;;;;;;;;143728;602;46012;-89
2021/07/23 04:36:10;;;;;;;18.50;8.77;;;;;;;;;;143723;590;47020;-88
2021/07/23 04:38:37;;;;;;;15.77;9.40;;;;;;;;;;143728;671;46012;-88
2021/07/23 04:41:06;;;;;;;18.70;10.40;;;;;;;;;;143725;585;47022;-87
2021/07/23 04:43:35;;;;;;;21.15;9.43;;;;;;;;;;143724;569;46012;-88
2021/07/23 04:46:02;;;;;;;16.15;8.48;;;;;;;;;;143724;647;47020;-88
2021/07/23 04:48:28;;;;;;;11.55;7.12;;;;;;;;;;143729;572;46012;-88
2021/07/23 04:50:56;;;;;;;16.55;8.02;;;;;;;;;;143724;565;47021;-87
2021/07/23 04:53:23;;;;;;;26.23;11.25;;;;;;;;;;143726;594;46012;-89
2021/07/23 04:55:53;;;;;;;17.75;9.18;;;;;;;;;;143720;565;46020;-88
2021/07/23 04:58:20;;;;;;;15.20;9.55;;;;;;;;;;143729;581;46010;-88
2021/07/23 05:00:53;;;;;;;20.98;9.35;;;;;;;;;;143725;594;46042;-91
2021/07/23 05:03:24;;;;;;;20.40;7.93;;;;;;;;;;143726;619;46020;-88
2021/07/23 05:05:52;;;;;;;12.10;8.23;;;;;;;;;;143722;636;47021;-89
2021/07/23 05:08:19;;;;;;;16.95;7.70;;;;;;;;;;143727;570;46012;-89
2021/07/23 05:10:46;;;;;;;17.45;8.73;;;;;;;;;;143725;590;47020;-90
2021/07/23 05:13:13;;;;;;;14.30;7.50;;;;;;;;;;143727;647;46012;-88
2021/07/23 05:15:40;;;;;;;12.85;6.50;;;;;;;;;;143725;611;47020;-88
2021/07/23 05:18:10;;;;;;;10.90;6.70;;;;;;;;;;143729;576;46012;-90
2021/07/23 05:20:38;;;;;;;9.60;6.25;;;;;;;;;;143720;571;46014;-89
2021/07/23 05:23:05;;;;;;;10.77;6.97;;;;;;;;;;143726;593;46012;-90
2021/07/23 05:25:34;;;;;;;12.63;7.28;;;;;;;;;;143727;625;46014;-89
2021/07/23 05:28:01;;;;;;;12.00;6.28;;;;;;;;;;143730;580;46012;-91
2021/07/23 05:30:28;;;;;;;12.30;6.68;;;;;;;;;;143723;589;47020;-88
2021/07/23 05:32:58;;;;;;;9.00;6.28;;;;;;;;;;143727;582;46919;-91
2021/07/23 05:35:24;;;;;;;7.68;5.55;;;;;;;;;;143725;594;46021;-88
2021/07/23 05:37:51;;;;;;;14.45;5.93;;;;;;;;;;143730;571;46020;-88
2021/07/23 05:40:18;;;;;;;9.40;6.60;;;;;;;;;;143726;573;47021;-88
2021/07/23 05:42:44;;;;;;;10.98;5.97;;;;;;;;;;143726;579;46044;-90
2021/07/23 05:45:11;;;;;;;7.97;5.32;;;;;;;;;;143719;581;47020;-89
2021/07/23 05:47:38;;;;;;;5.72;4.65;;;;;;;;;;143724;593;47020;-88
2021/07/23 05:50:05;;;;;;;7.15;5.35;;;;;;;;;;143726;564;47023;-91
2021/07/23 05:52:32;;;;;;;8.23;5.30;;;;;;;;;;143726;649;46012;-92
2021/07/23 05:54:59;;;;;;;10.00;5.20;;;;;;;;;;143726;569;46020;-91
2021/07/23 05:57:29;;;;;;;8.70;5.40;;;;;;;;;;143731;647;46012;-90
2021/07/23 05:59:57;;;;;;;10.63;5.50;;;;;;;;;;143728;602;46022;-91
2021/07/23 06:02:24;;;;;;;8.35;5.37;;;;;;;;;;143727;601;46012;-93
2021/07/23 06:04:50;;;;;;;10.13;4.47;;;;;;;;;;143725;662;46021;-92
2021/07/23 06:07:18;;;;;;;14.13;5.80;;;;;;;;;;143725;580;47020;-92
2021/07/23 06:09:45;;;;;;;7.97;5.40;;;;;;;;;;143718;580;47022;-90
2021/07/23 06:12:13;;;;;;;10.55;5.75;;;;;;;;;;143727;576;46012;-90
2021/07/23 06:14:41;;;;;;;8.60;5.20;;;;;;;;;;143724;600;46020;-90
2021/07/23 06:17:08;;;;;;;12.15;5.30;;;;;;;;;;143731;582;46020;-91
2021/07/23 06:19:37;;;;;;;10.50;6.18;;;;;;;;;;143727;585;46023;-91
2021/07/23 06:22:05;;;;;;;9.95;5.12;;;;;;;;;;143726;590;46012;-92
2021/07/23 06:24:40;;;;;;;11.18;6.47;;;;;;;;;;143728;575;47020;-93
2021/07/23 06:27:21;;;;;;;15.50;5.90;;;;;;;;;;143733;580;45021;-90
2021/07/23 06:29:56;;;;;;;10.10;5.93;;;;;;;;;;143731;605;46014;-90
2021/07/23 06:32:27;;;;;;;12.50;5.72;;;;;;;;;;143727;622;45021;-90
2021/07/23 06:34:56;;;;;;;9.63;6.07;;;;;;;;;;143723;584;46021;-92
2021/07/23 06:37:25;;;;;;;12.75;5.70;;;;;;;;;;143728;606;46012;-92
2021/07/23 06:39:52;;;;;;;10.23;4.97;;;;;;;;;;143723;571;46022;-93
2021/07/23 06:42:23;;;;;;;14.25;6.97;;;;;;;;;;143723;597;47919;-91
2021/07/23 06:44:53;;;;;;;11.73;5.07;;;;;;;;;;143723;688;47020;-90
2021/07/23 06:47:24;;;;;;;15.43;5.50;;;;;;;;;;143727;603;47012;-93
2021/07/23 06:50:32;;;;;;;18.00;5.82;;;;;;;;;;143727;570;46021;-94
2021/07/23 06:53:10;;;;;;;11.20;5.65;;;;;;;;;;143727;571;46012;-90
2021/07/23 06:55:51;;;;;;;9.13;5.37;;;;;;;;;;143725;588;46021;-93
2021/07/23 06:58:18;;;;;;;8.95;5.40;;;;;;;;;;143729;587;46012;-90
2021/07/23 07:01:36;;;;;;;10.98;6.07;;;;;;;;;;143717;598;47020;-92
2021/07/23 07:04:03;;;;;;;8.27;6.10;;;;;;;;;;143726;603;46012;-92
2021/07/23 07:06:41;;;;;;;12.48;6.37;;;;;;;;;;143723;583;47020;-91
2021/07/23 07:09:07;;;;;;;14.02;6.68;;;;;;;;;;143724;618;47019;-94
2021/07/23 07:11:34;;;;;;;12.23;7.40;;;;;;;;;;143721;588;47021;-89
2021/07/23 07:14:01;;;;;;;10.15;6.90;;;;;;;;;;143725;593;46020;-91
2021/07/23 07:16:28;;;;;;;13.10;7.07;;;;;;;;;;143721;582;47020;-91
2021/07/23 07:18:55;;;;;;;12.57;7.28;;;;;;;;;;143726;578;46012;-92
2021/07/23 07:21:22;;;;;;;18.10;7.25;;;;;;;;;;143724;569;46046;-90
2021/07/23 07:23:48;;;;;;;24.40;9.20;;;;;;;;;;143725;661;46012;-90
2021/07/23 07:26:15;;;;;;;22.08;10.15;;;;;;;;;;143718;600;47020;-92
2021/07/23 07:28:44;;;;;;;21.15;8.90;;;;;;;;;;143726;711;46012;-91
2021/07/23 07:31:17;;;;;;;23.50;9.20;;;;;;;;;;143720;774;47022;-91
2021/07/23 07:33:43;;;;;;;14.55;7.90;;;;;;;;;;143725;596;46012;-93
2021/07/23 07:36:16;;;;;;;22.92;9.15;;;;;;;;;;143721;593;47020;-92
2021/07/23 07:38:47;;;;;;;17.30;7.32;;;;;;;;;;143727;575;46012;-93
2021/07/23 07:41:21;;;;;;;13.40;7.22;;;;;;;;;;143723;564;47023;-89
2021/07/23 07:43:48;;;;;;;22.75;8.02;;;;;;;;;;143722;569;46488;-90
2021/07/23 07:46:15;;;;;;;11.07;6.45;;;;;;;;;;143725;646;46012;-89
2021/07/23 07:48:42;;;;;;;14.18;8.50;;;;;;;;;;143730;922;46012;-89
2021/07/23 07:51:08;;;;;;;18.00;7.15;;;;;;;;;;143719;887;46020;-89
2021/07/23 07:53:36;;;;;;;16.40;8.05;;;;;;;;;;143725;808;46919;-91
2021/07/23 07:56:06;;;;;;;16.33;7.12;;;;;;;;;;143724;738;46021;-90
2021/07/23 07:58:33;;;;;;;12.93;6.78;;;;;;;;;;143727;590;47018;-90
2021/07/23 08:00:59;;;;;;;23.55;7.62;;;;;;;;;;143722;593;47022;-90
2021/07/23 08:03:26;;;;;;;16.27;7.20;;;;;;;;;;143725;583;46013;-90
2021/07/23 08:05:57;;;;;;;14.95;6.90;;;;;;;;;;143726;605;46020;-89
2021/07/23 08:08:23;;;;;;;8.90;6.03;;;;;;;;;;143726;569;46012;-89
2021/07/23 08:10:50;;;;;;;9.13;6.45;;;;;;;;;;143724;943;46022;-89
2021/07/23 08:13:17;;;;;;;8.55;5.37;;;;;;;;;;143725;565;46012;-92
2021/07/23 08:15:44;;;;;;;15.90;5.55;;;;;;;;;;143721;585;47020;-91
2021/07/23 08:18:12;;;;;;;6.95;4.50;;;;;;;;;;143727;642;46012;-89
2021/07/23 08:20:41;;;;;;;12.32;5.22;;;;;;;;;;143723;599;46022;-90
2021/07/23 08:23:08;;;;;;;10.18;4.43;;;;;;;;;;143726;980;46012;-89
2021/07/23 08:25:35;;;;;;;8.45;5.35;;;;;;;;;;143722;972;46021;-93
2021/07/23 08:28:02;;;;;;;11.80;5.05;;;;;;;;;;143727;965;46020;-93
2021/07/23 08:30:30;;;;;;;11.57;5.10;;;;;;;;;;143724;569;47020;-90
2021/07/23 08:32:57;;;;;;;9.07;4.72;;;;;;;;;;143725;581;46020;-91
2021/07/23 08:35:24;;;;;;;8.73;5.25;;;;;;;;;;143725;830;46020;-91
2021/07/23 08:37:50;;;;;;;11.60;5.72;;;;;;;;;;143726;597;46012;-92
2021/07/23 08:40:18;;;;;;;11.15;5.47;;;;;;;;;;143718;583;46022;-96
2021/07/23 08:42:46;;;;;;;14.32;4.82;;;;;;;;;;143725;711;46012;-91
2021/07/23 08:45:16;;;;;;;7.68;4.55;;;;;;;;;;143721;645;47020;-89
2021/07/23 08:47:45;;;;;;;12.20;4.57;;;;;;;;;;143728;658;46012;-92
2021/07/23 08:50:13;;;;;;;9.40;4.87;;;;;;;;;;143724;588;47020;-92
2021/07/23 08:52:42;;;;;;;7.07;4.37;;;;;;;;;;143726;588;46012;-91
2021/07/23 08:55:11;;;;;;;9.38;3.87;;;;;;;;;;143724;567;46020;-93
2021/07/23 08:57:41;;;;;;;7.37;3.87;;;;;;;;;;143728;605;46018;-92
2021/07/23 09:00:14;;;;;;;6.00;3.83;;;;;;;;;;143726;676;46012;-93
2021/07/23 09:03:00;;;;;;;7.80;3.55;;;;;;;;;;143723;972;47919;-92
2021/07/23 09:05:34;;;;;;;12.07;4.70;;;;;;;;;;143722;564;46020;-91
2021/07/23 09:08:15;;;;;;;11.57;4.03;;;;;;;;;;143727;596;46020;-90
2021/07/23 09:10:45;;;;;;;6.60;3.15;;;;;;;;;;143721;565;47022;-89
2021/07/23 09:13:21;;;;;;;8.50;3.53;;;;;;;;;;143725;757;46020;-89
2021/07/23 09:15:47;;;;;;;5.53;3.45;;;;;;;;;;143722;617;47020;-90
2021/07/23 09:18:23;;;;;;;7.95;3.08;;;;;;;;;;143725;648;46012;-91
2021/07/23 09:20:55;;;;;;;5.32;3.40;;;;;;;;;;143722;564;47020;-89
2021/07/23 09:23:30;;;;;;;6.73;2.70;;;;;;;;;;143726;621;46013;-90
2021/07/23 09:26:17;;;;;;;4.78;3.35;;;;;;;;;;143725;917;46021;-91
2021/07/23 09:28:49;;;;;;;4.95;2.92;;;;;;;;;;143725;876;46020;-92
2021/07/23 09:31:25;;;;;;;10.15;3.08;;;;;;;;;;143720;826;47022;-91
2021/07/23 09:33:58;;;;;;;12.43;3.78;;;;;;;;;;143719;720;47020;-91
2021/07/23 09:36:25;;;;;;;4.95;2.70;;;;;;;;;;143725;569;46020;-91
2021/07/23 09:39:00;;;;;;;6.00;3.10;;;;;;;;;;143727;570;46013;-91
2021/07/23 09:41:28;;;;;;;6.50;2.50;;;;;;;;;;143724;636;46023;-92
2021/07/23 09:44:02;;;;;;;5.80;2.75;;;;;;;;;;143726;588;46012;-92
2021/07/23 09:46:41;;;;;;;6.10;2.85;;;;;;;;;;143728;595;46021;-96
2021/07/23 09:49:28;;;;;;;8.93;2.90;;;;;;;;;;143722;576;47021;-90
2021/07/23 09:52:03;;;;;;;8.10;3.28;;;;;;;;;;143722;725;47022;-88
2021/07/23 09:54:30;;;;;;;11.73;3.47;;;;;;;;;;143723;577;46918;-90
2021/07/23 09:57:03;;;;;;;10.32;3.55;;;;;;;;;;143718;597;47020;-91
2021/07/23 10:00:11;;;;;;;9.75;3.83;;;;;;;;;;143728;596;46012;-92
2021/07/23 10:02:43;;;;;;;8.90;3.62;;;;;;;;;;143722;637;48020;-92
2021/07/23 10:05:12;;;;;;;;;;;;;;;;;;143731;968;46918;-91
2021/07/23 10:08:03;;;;;;;7.35;3.17;;;;;;;;;;143730;587;47020;-90
2021/07/23 10:10:30;;;;;;;9.25;3.25;;;;;;;;;;143726;923;46021;-92
2021/07/23 10:12:58;;;;;;;8.13;3.58;;;;;;;;;;143723;585;46022;-93
2021/07/23 10:15:27;;;;;;;6.18;3.70;;;;;;;;;;143726;583;46012;-88
2021/07/23 10:17:55;;;;;;;6.68;3.30;;;;;;;;;;143722;980;47021;-91
2021/07/23 10:20:22;;;;;;;6.43;3.00;;;;;;;;;;143727;979;46012;-88
2021/07/23 10:22:52;;;;;;;8.40;4.00;;;;;;;;;;143721;596;46014;-88
2021/07/23 10:25:21;;;;;;;5.30;3.28;;;;;;;;;;143724;959;46021;-92
2021/07/23 10:27:48;;;;;;;7.87;3.37;;;;;;;;;;143721;739;47020;-91
2021/07/23 10:30:36;;;;;;;5.50;3.72;;;;;;;;;;143726;948;47012;-91
2021/07/23 10:33:05;;;;;;;6.07;3.75;;;;;;;;;;143721;607;47021;-91
2021/07/23 10:35:33;;;;;;;6.55;3.05;;;;;;;;;;143725;635;46012;-91
2021/07/23 10:38:01;;;;;;;5.25;2.83;;;;;;;;;;143723;764;47020;-91
2021/07/23 10:40:42;;;;;;;8.30;3.25;;;;;;;;;;143726;644;46020;-90
2021/07/23 10:43:33;;;;;;;5.40;3.25;;;;;;;;;;143721;564;47049;-91
2021/07/23 10:45:59;;;;;;;4.87;2.90;;;;;;;;;;143725;972;46013;-91
2021/07/23 10:48:48;;;;;;;11.88;3.25;;;;;;;;;;143720;565;47020;-92
2021/07/23 10:52:05;;;;;;;6.50;2.97;;;;;;;;;;143724;661;46042;-92
2021/07/23 10:55:06;;;;;;;8.68;3.03;;;;;;;;;;143723;932;47021;-90
2021/07/23 10:57:37;;;;;;;4.55;2.75;;;;;;;;;;143725;971;46012;-89
2021/07/23 11:00:08;;;;;;;12.02;3.35;;;;;;;;;;143726;563;46018;-91
2021/07/23 11:02:54;;;;;;;8.30;3.17;;;;;;;;;;143727;570;46018;-90
2021/07/23 11:05:21;;;;;;;4.85;3.30;;;;;;;;;;143726;905;46024;-91
2021/07/23 11:07:48;;;;;;;5.95;2.90;;;;;;;;;;143726;895;46021;-91
2021/07/23 11:10:17;;;;;;;7.78;2.70;;;;;;;;;;143723;689;46020;-91
2021/07/23 11:12:47;;;;;;;6.90;2.80;;;;;;;;;;143728;564;46020;-90
2021/07/23 11:15:21;;;;;;;9.70;2.72;;;;;;;;;;143723;605;47022;-90
2021/07/23 11:17:52;;;;;;;6.07;2.97;;;;;;;;;;143729;579;45021;-93
2021/07/23 11:20:37;;;;;;;6.50;2.45;;;;;;;;;;143726;712;46020;-92
2021/07/23 11:23:05;;;;;;;5.80;3.00;;;;;;;;;;143728;847;46013;-92
2021/07/23 11:25:37;;;;;;;5.43;2.62;;;;;;;;;;143722;703;47020;-92
2021/07/23 11:28:08;;;;;;;9.18;2.75;;;;;;;;;;143725;970;46012;-90
2021/07/23 11:30:36;;;;;;;7.75;2.72;;;;;;;;;;143725;740;46021;-89
2021/07/23 11:33:06;;;;;;;9.60;3.03;;;;;;;;;;143724;646;47018;-93
2021/07/23 11:35:39;;;;;;;7.03;3.62;;;;;;;;;;143722;569;47022;-90
2021/07/23 11:38:14;;;;;;;2.97;2.30;;;;;;;;;;143724;567;46013;-90
2021/07/23 11:40:41;;;;;;;4.20;2.10;;;;;;;;;;143722;802;47020;-91
2021/07/23 11:43:21;;;;;;;6.03;2.90;;;;;;;;;;143725;564;47020;-92
2021/07/23 11:45:52;;;;;;;8.13;2.60;;;;;;;;;;143723;823;47020;-90
2021/07/23 11:48:20;;;;;;;4.70;2.95;;;;;;;;;;143723;783;47020;-87
2021/07/23 11:50:54;;;;;;;5.05;2.53;;;;;;;;;;143722;575;47020;-88
2021/07/23 11:53:21;;;;;;;4.90;2.80;;;;;;;;;;143726;592;46013;-89
2021/07/23 11:55:54;;;;;;;5.78;2.60;;;;;;;;;;143723;818;46023;-88
2021/07/23 11:58:33;;;;;;;4.47;2.65;;;;;;;;;;143723;571;46919;-89
2021/07/23 12:01:00;;;;;;;8.60;3.35;;;;;;;;;;143724;580;46021;-87
2021/07/23 12:03:28;;;;;;;6.25;2.50;;;;;;;;;;143727;583;46018;-87
2021/07/23 12:06:07;;;;;;;5.57;2.60;;;;;;;;;;143719;593;47022;-91
2021/07/23 12:08:43;;;;;;;3.72;2.50;;;;;;;;;;143722;612;47012;-90
2021/07/23 12:11:09;;;;;;;8.50;3.53;;;;;;;;;;143721;582;47022;-90
2021/07/23 12:13:36;;;;;;;5.15;2.62;;;;;;;;;;143724;565;47016;-90
2021/07/23 12:16:04;;;;;;;5.12;2.22;;;;;;;;;;143725;577;47022;-92
2021/07/23 12:18:31;;;;;;;7.85;3.22;;;;;;;;;;143725;566;46020;-88
2021/07/23 12:21:11;;;;;;;8.93;2.62;;;;;;;;;;143722;756;47020;-89
2021/07/23 12:23:38;;;;;;;5.35;2.70;;;;;;;;;;143726;592;46013;-91
2021/07/23 12:26:04;;;;;;;5.20;2.15;;;;;;;;;;143727;589;46023;-89
2021/07/23 12:28:34;;;;;;;4.10;2.22;;;;;;;;;;143724;969;46918;-89
2021/07/23 12:31:01;;;;;;;4.87;2.75;;;;;;;;;;143725;629;46021;-89
2021/07/23 12:33:31;;;;;;;7.12;2.22;;;;;;;;;;143726;569;46012;-89
2021/07/23 12:36:01;;;;;;;3.12;2.30;;;;;;;;;;143722;675;47022;-89
2021/07/23 12:38:31;;;;;;;4.53;2.75;;;;;;;;;;143725;582;46013;-89
2021/07/23 12:41:01;;;;;;;5.37;2.53;;;;;;;;;;143723;597;47020;-90
2021/07/23 12:43:29;;;;;;;4.68;2.50;;;;;;;;;;143726;742;46012;-90
2021/07/23 12:45:58;;;;;;;3.80;2.50;;;;;;;;;;143723;563;47021;-89
2021/07/23 12:48:33;;;;;;;9.10;2.53;;;;;;;;;;143727;580;46020;-88
2021/07/23 12:51:09;;;;;;;5.75;2.85;;;;;;;;;;143725;576;46020;-89
2021/07/23 12:53:37;;;;;;;5.37;3.10;;;;;;;;;;143727;573;46013;-88
2021/07/23 12:56:07;;;;;;;10.25;2.33;;;;;;;;;;143723;570;46022;-88
2021/07/23 12:58:46;;;;;;;5.50;2.60;;;;;;;;;;143724;569;47012;-89
2021/07/23 13:01:16;;;;;;;4.97;2.72;;;;;;;;;;143725;583;46048;-87
2021/07/23 13:03:49;;;;;;;7.37;3.67;;;;;;;;;;143728;580;46018;-90
2021/07/23 13:06:17;;;;;;;4.32;2.92;;;;;;;;;;143727;574;46014;-89
2021/07/23 13:08:44;;;;;;;9.77;2.30;;;;;;;;;;143729;569;46012;-89
2021/07/23 13:11:11;;;;;;;4.25;2.67;;;;;;;;;;143727;583;46014;-90
2021/07/23 13:13:42;;;;;;;6.00;2.55;;;;;;;;;;143727;663;46037;-89
2021/07/23 13:16:10;;;;;;;5.18;2.85;;;;;;;;;;143724;586;46023;-90
2021/07/23 13:18:39;;;;;;;9.25;2.40;;;;;;;;;;143726;564;46020;-89
2021/07/23 13:21:07;;;;;;;6.25;2.42;;;;;;;;;;143722;598;46020;-90
2021/07/23 13:23:34;;;;;;;4.95;2.25;;;;;;;;;;143728;631;46021;-88
2021/07/23 13:26:05;;;;;;;8.77;1.95;;;;;;;;;;143725;792;46022;-89
2021/07/23 13:28:32;;;;;;;5.12;2.97;;;;;;;;;;143725;579;46012;-91
2021/07/23 13:31:02;;;;;;;3.37;2.87;;;;;;;;;;143725;573;46021;-90
2021/07/23 13:33:29;;;;;;;3.87;2.78;;;;;;;;;;143725;565;47012;-88
2021/07/23 13:36:08;;;;;;;6.00;3.00;;;;;;;;;;143724;564;47022;-91
2021/07/23 13:38:38;;;;;;;3.80;2.40;;;;;;;;;;143727;569;46012;-88
2021/07/23 13:41:09;;;;;;;6.68;2.53;;;;;;;;;;143725;600;46020;-88
2021/07/23 13:43:38;;;;;;;3.85;2.17;;;;;;;;;;143727;672;46012;-90
2021/07/23 13:46:05;;;;;;;7.97;2.75;;;;;;;;;;143720;637;46023;-90
2021/07/23 13:48:32;;;;;;;8.90;2.55;;;;;;;;;;143724;692;46020;-89
2021/07/23 13:50:59;;;;;;;3.70;2.60;;;;;;;;;;143723;631;46020;-89
2021/07/23 13:53:26;;;;;;;4.53;2.75;;;;;;;;;;143728;581;46013;-88
2021/07/23 13:55:53;;;;;;;7.25;2.45;;;;;;;;;;143725;712;46020;-90
2021/07/23 13:58:19;;;;;;;9.68;2.65;;;;;;;;;;143725;570;46020;-91
2021/07/23 14:00:46;;;;;;;3.70;2.67;;;;;;;;;;143724;584;46018;-89
2021/07/23 14:03:16;;;;;;;5.68;2.50;;;;;;;;;;143728;692;46018;-90
2021/07/23 14:05:42;;;;;;;8.93;2.67;;;;;;;;;;143725;585;47022;-89
2021/07/23 14:08:09;;;;;;;11.95;3.60;;;;;;;;;;143726;578;46021;-89
2021/07/23 14:10:36;;;;;;;6.37;2.70;;;;;;;;;;143719;615;46020;-90
2021/07/23 14:13:05;;;;;;;3.08;2.28;;;;;;;;;;143726;592;47018;-90
2021/07/23 14:15:31;;;;;;;4.62;2.87;;;;;;;;;;143726;639;46023;-89
2021/07/23 14:17:58;;;;;;;4.43;2.60;;;;;;;;;;143724;569;47020;-89
2021/07/23 14:20:24;;;;;;;6.65;2.90;;;;;;;;;;143726;572;46020;-89
2021/07/23 14:22:51;;;;;;;8.85;2.47;;;;;;;;;;143726;592;46021;-89
2021/07/23 14:25:18;;;;;;;4.20;2.10;;;;;;;;;;143725;658;46038;-90
2021/07/23 14:27:45;;;;;;;5.12;2.70;;;;;;;;;;143725;564;46918;-90
2021/07/23 14:30:12;;;;;;;6.95;2.40;;;;;;;;;;143728;595;46014;-91
2021/07/23 14:32:39;;;;;;;6.28;2.83;;;;;;;;;;143727;570;46012;-90
2021/07/23 14:35:06;;;;;;;4.07;2.50;;;;;;;;;;143720;585;47020;-89
2021/07/23 14:37:35;;;;;;;4.70;2.65;;;;;;;;;;143727;599;46021;-89
2021/07/23 14:40:03;;;;;;;4.00;2.90;;;;;;;;;;143726;586;46020;-89
2021/07/23 14:42:29;;;;;;;4.00;3.15;;;;;;;;;;143728;733;46012;-88
2021/07/23 14:44:56;;;;;;;8.23;3.08;;;;;;;;;;143724;564;47020;-89
2021/07/23 14:47:23;;;;;;;4.90;2.35;;;;;;;;;;143728;564;46020;-89
2021/07/23 14:49:50;;;;;;;5.40;3.25;;;;;;;;;;143725;619;46020;-88
2021/07/23 14:52:16;;;;;;;2.70;2.17;;;;;;;;;;143728;593;46013;-92
2021/07/23 14:54:43;;;;;;;4.05;2.67;;;;;;;;;;143725;594;46023;-86